<?xml version="1.0" encoding="UTF-8" standalone="no" ?>
<gpx xmlns="http://www.topografix.com/GPX/1/1" xmlns:xsi="http://www.w3.org/2001/XMLSchema-instance" xsi:schemaLocation="http://www.topografix.com/GPX/1/1 http://www.topografix.com/GPX/1/1/gpx.xsd" version="1.1" creator="VisuGPX - https://www.visugpx.com">
  <metadata>
    <name>Suède</name>
  </metadata>
  <trk>
    <name><![CDATA[Tour d'Europe: étape 104]]></name>
    <trkseg>
      <trkpt lat="60.77591" lon="16.72749">
        <ele>128.685745</ele>
        <time>2020-10-10T08:07:39.291Z</time>
      </trkpt>
      <trkpt lat="60.7752" lon="16.72674">
        <ele>139.007791</ele>
        <time>2020-10-10T08:10:03.261Z</time>
      </trkpt>
      <trkpt lat="60.77331" lon="16.72907">
        <ele>138.416789</ele>
        <time>2020-10-10T08:11:03.254Z</time>
      </trkpt>
      <trkpt lat="60.77148" lon="16.73237">
        <ele>132.446979</ele>
        <time>2020-10-10T08:11:44.298Z</time>
      </trkpt>
      <trkpt lat="60.76933" lon="16.73541">
        <ele>128.989147</ele>
        <time>2020-10-10T08:12:26.291Z</time>
      </trkpt>
      <trkpt lat="60.7673" lon="16.73712">
        <ele>128.050775</ele>
        <time>2020-10-10T08:13:14.250Z</time>
      </trkpt>
      <trkpt lat="60.76552" lon="16.73933">
        <ele>123.874716</ele>
        <time>2020-10-10T08:13:56.270Z</time>
      </trkpt>
      <trkpt lat="60.76394" lon="16.74228">
        <ele>125.099218</ele>
        <time>2020-10-10T08:14:41.279Z</time>
      </trkpt>
      <trkpt lat="60.76262" lon="16.74564">
        <ele>128.827604</ele>
        <time>2020-10-10T08:15:24.255Z</time>
      </trkpt>
      <trkpt lat="60.76106" lon="16.74821">
        <ele>128.143857</ele>
        <time>2020-10-10T08:16:09.262Z</time>
      </trkpt>
      <trkpt lat="60.75975" lon="16.75149">
        <ele>125.766186</ele>
        <time>2020-10-10T08:16:54.274Z</time>
      </trkpt>
      <trkpt lat="60.75866" lon="16.75585">
        <ele>129.863401</ele>
        <time>2020-10-10T08:17:48.279Z</time>
      </trkpt>
      <trkpt lat="60.75746" lon="16.75956">
        <ele>129.981588</ele>
        <time>2020-10-10T08:18:28.270Z</time>
      </trkpt>
      <trkpt lat="60.75573" lon="16.7616">
        <ele>127.635066</ele>
        <time>2020-10-10T08:19:11.266Z</time>
      </trkpt>
      <trkpt lat="60.75348" lon="16.76199">
        <ele>127.602219</ele>
        <time>2020-10-10T08:20:01.259Z</time>
      </trkpt>
      <trkpt lat="60.7515" lon="16.76331">
        <ele>127.620386</ele>
        <time>2020-10-10T08:20:41.246Z</time>
      </trkpt>
      <trkpt lat="60.74939" lon="16.76497">
        <ele>123.736447</ele>
        <time>2020-10-10T08:21:21.253Z</time>
      </trkpt>
      <trkpt lat="60.74731" lon="16.7656">
        <ele>119.23598</ele>
        <time>2020-10-10T08:22:01.279Z</time>
      </trkpt>
      <trkpt lat="60.74519" lon="16.76708">
        <ele>119.469627</ele>
        <time>2020-10-10T08:22:43.273Z</time>
      </trkpt>
      <trkpt lat="60.74333" lon="16.76928">
        <ele>119.087754</ele>
        <time>2020-10-10T08:23:23.304Z</time>
      </trkpt>
      <trkpt lat="60.74145" lon="16.77127">
        <ele>117.108649</ele>
        <time>2020-10-10T08:24:03.302Z</time>
      </trkpt>
      <trkpt lat="60.73947" lon="16.77336">
        <ele>112.911066</ele>
        <time>2020-10-10T08:24:43.254Z</time>
      </trkpt>
      <trkpt lat="60.7375" lon="16.77569">
        <ele>113.866162</ele>
        <time>2020-10-10T08:25:27.301Z</time>
      </trkpt>
      <trkpt lat="60.73574" lon="16.7777">
        <ele>114.669518</ele>
        <time>2020-10-10T08:26:08.263Z</time>
      </trkpt>
      <trkpt lat="60.73377" lon="16.77946">
        <ele>115.188837</ele>
        <time>2020-10-10T08:26:52.260Z</time>
      </trkpt>
      <trkpt lat="60.73165" lon="16.78069">
        <ele>116.130743</ele>
        <time>2020-10-10T08:27:37.270Z</time>
      </trkpt>
      <trkpt lat="60.72987" lon="16.78232">
        <ele>112.249324</ele>
        <time>2020-10-10T08:28:18.302Z</time>
      </trkpt>
      <trkpt lat="60.72786" lon="16.78386">
        <ele>113.255152</ele>
        <time>2020-10-10T08:29:08.269Z</time>
      </trkpt>
      <trkpt lat="60.72579" lon="16.78626">
        <ele>116.467944</ele>
        <time>2020-10-10T08:30:04.275Z</time>
      </trkpt>
      <trkpt lat="60.72407" lon="16.78863">
        <ele>117.423404</ele>
        <time>2020-10-10T08:30:50.269Z</time>
      </trkpt>
      <trkpt lat="60.72237" lon="16.79165">
        <ele>119.492065</ele>
        <time>2020-10-10T08:31:41.272Z</time>
      </trkpt>
      <trkpt lat="60.721" lon="16.79482">
        <ele>120.26255</ele>
        <time>2020-10-10T08:32:22.275Z</time>
      </trkpt>
      <trkpt lat="60.71925" lon="16.79808">
        <ele>117.463684</ele>
        <time>2020-10-10T08:33:04.287Z</time>
      </trkpt>
      <trkpt lat="60.71722" lon="16.80061">
        <ele>114.903347</ele>
        <time>2020-10-10T08:33:44.296Z</time>
      </trkpt>
      <trkpt lat="60.71506" lon="16.80263">
        <ele>108.026559</ele>
        <time>2020-10-10T08:34:24.270Z</time>
      </trkpt>
      <trkpt lat="60.71307" lon="16.80552">
        <ele>105.307884</ele>
        <time>2020-10-10T08:35:04.261Z</time>
      </trkpt>
      <trkpt lat="60.71093" lon="16.80804">
        <ele>104.015412</ele>
        <time>2020-10-10T08:35:44.285Z</time>
      </trkpt>
      <trkpt lat="60.70885" lon="16.80985">
        <ele>101.941187</ele>
        <time>2020-10-10T08:36:24.286Z</time>
      </trkpt>
      <trkpt lat="60.70677" lon="16.81155">
        <ele>106.437366</ele>
        <time>2020-10-10T08:37:12.276Z</time>
      </trkpt>
      <trkpt lat="60.70465" lon="16.81208">
        <ele>105.435384</ele>
        <time>2020-10-10T08:37:56.324Z</time>
      </trkpt>
      <trkpt lat="60.70256" lon="16.81335">
        <ele>101.834211</ele>
        <time>2020-10-10T08:38:46.284Z</time>
      </trkpt>
      <trkpt lat="60.70079" lon="16.81639">
        <ele>104.272492</ele>
        <time>2020-10-10T08:39:46.253Z</time>
      </trkpt>
      <trkpt lat="60.69878" lon="16.81739">
        <ele>104.75101</ele>
        <time>2020-10-10T08:40:32.273Z</time>
      </trkpt>
      <trkpt lat="60.69661" lon="16.81665">
        <ele>105.450689</ele>
        <time>2020-10-10T08:41:16.294Z</time>
      </trkpt>
      <trkpt lat="60.69457" lon="16.81689">
        <ele>108.65</ele>
        <time>2020-10-10T08:42:14.279Z</time>
      </trkpt>
      <trkpt lat="60.69231" lon="16.81649">
        <ele>100.713952</ele>
        <time>2020-10-10T08:42:59.267Z</time>
      </trkpt>
      <trkpt lat="60.69016" lon="16.81509">
        <ele>109.173577</ele>
        <time>2020-10-10T08:43:52.295Z</time>
      </trkpt>
      <trkpt lat="60.68794" lon="16.81455">
        <ele>122.94103</ele>
        <time>2020-10-10T08:44:47.273Z</time>
      </trkpt>
      <trkpt lat="60.68595" lon="16.81571">
        <ele>114.508159</ele>
        <time>2020-10-10T08:45:39.297Z</time>
      </trkpt>
      <trkpt lat="60.6839" lon="16.81622">
        <ele>105.340776</ele>
        <time>2020-10-10T08:46:22.277Z</time>
      </trkpt>
      <trkpt lat="60.68154" lon="16.81661">
        <ele>111.372522</ele>
        <time>2020-10-10T08:47:18.300Z</time>
      </trkpt>
      <trkpt lat="60.67936" lon="16.81683">
        <ele>115.157314</ele>
        <time>2020-10-10T08:48:05.275Z</time>
      </trkpt>
      <trkpt lat="60.67755" lon="16.81458">
        <ele>116.568266</ele>
        <time>2020-10-10T08:49:03.287Z</time>
      </trkpt>
      <trkpt lat="60.6758" lon="16.81199">
        <ele>118.266939</ele>
        <time>2020-10-10T08:50:07.281Z</time>
      </trkpt>
      <trkpt lat="60.67354" lon="16.8109">
        <ele>117.119104</ele>
        <time>2020-10-10T08:51:06.279Z</time>
      </trkpt>
      <trkpt lat="60.67141" lon="16.80948">
        <ele>117.714441</ele>
        <time>2020-10-10T08:52:06.284Z</time>
      </trkpt>
      <trkpt lat="60.6711" lon="16.81384">
        <ele>107.900525</ele>
        <time>2020-10-10T08:52:40.281Z</time>
      </trkpt>
      <trkpt lat="60.67057" lon="16.81718">
        <ele>103.715213</ele>
        <time>2020-10-10T08:53:41.289Z</time>
      </trkpt>
      <trkpt lat="60.67033" lon="16.81761">
        <ele>105.299604</ele>
        <time>2020-10-10T08:55:43.312Z</time>
      </trkpt>
      <trkpt lat="60.67146" lon="16.82078">
        <ele>103.77337</ele>
        <time>2020-10-10T08:56:55.287Z</time>
      </trkpt>
      <trkpt lat="60.67173" lon="16.82504">
        <ele>103.19328</ele>
        <time>2020-10-10T08:57:49.279Z</time>
      </trkpt>
      <trkpt lat="60.67289" lon="16.82847">
        <ele>109.085623</ele>
        <time>2020-10-10T08:58:47.280Z</time>
      </trkpt>
      <trkpt lat="60.67323" lon="16.83248">
        <ele>104.405775</ele>
        <time>2020-10-10T08:59:30.280Z</time>
      </trkpt>
      <trkpt lat="60.67287" lon="16.83688">
        <ele>99.912035</ele>
        <time>2020-10-10T09:00:20.295Z</time>
      </trkpt>
      <trkpt lat="60.67185" lon="16.84035">
        <ele>106.937583</ele>
        <time>2020-10-10T09:01:13.269Z</time>
      </trkpt>
      <trkpt lat="60.67016" lon="16.84276">
        <ele>111.591338</ele>
        <time>2020-10-10T09:02:19.295Z</time>
      </trkpt>
      <trkpt lat="60.67103" lon="16.84677">
        <ele>107.176184</ele>
        <time>2020-10-10T09:04:02.292Z</time>
      </trkpt>
      <trkpt lat="60.67145" lon="16.85103">
        <ele>104.079914</ele>
        <time>2020-10-10T09:04:56.272Z</time>
      </trkpt>
      <trkpt lat="60.67151" lon="16.8554">
        <ele>107.6179</ele>
        <time>2020-10-10T09:05:43.279Z</time>
      </trkpt>
      <trkpt lat="60.67155" lon="16.85958">
        <ele>109.139653</ele>
        <time>2020-10-10T09:06:30.300Z</time>
      </trkpt>
      <trkpt lat="60.67122" lon="16.86371">
        <ele>110.088879</ele>
        <time>2020-10-10T09:07:15.277Z</time>
      </trkpt>
      <trkpt lat="60.66927" lon="16.8665">
        <ele>114.232886</ele>
        <time>2020-10-10T09:08:11.274Z</time>
      </trkpt>
      <trkpt lat="60.66743" lon="16.86624">
        <ele>120.348938</ele>
        <time>2020-10-10T09:09:13.266Z</time>
      </trkpt>
      <trkpt lat="60.6654" lon="16.86575">
        <ele>109.849944</ele>
        <time>2020-10-10T09:09:54.275Z</time>
      </trkpt>
      <trkpt lat="60.6635" lon="16.86815">
        <ele>108.026198</ele>
        <time>2020-10-10T09:10:42.298Z</time>
      </trkpt>
      <trkpt lat="60.6638" lon="16.87099">
        <ele>107.804857</ele>
        <time>2020-10-10T09:11:27.291Z</time>
      </trkpt>
      <trkpt lat="60.66533" lon="16.8745">
        <ele>104.623566</ele>
        <time>2020-10-10T09:12:19.281Z</time>
      </trkpt>
      <trkpt lat="60.66608" lon="16.87861">
        <ele>101.987476</ele>
        <time>2020-10-10T09:12:59.276Z</time>
      </trkpt>
      <trkpt lat="60.66679" lon="16.88279">
        <ele>96.675412</ele>
        <time>2020-10-10T09:13:42.280Z</time>
      </trkpt>
      <trkpt lat="60.66748" lon="16.88695">
        <ele>100.720556</ele>
        <time>2020-10-10T09:14:29.273Z</time>
      </trkpt>
      <trkpt lat="60.66832" lon="16.89103">
        <ele>101.620015</ele>
        <time>2020-10-10T09:15:17.271Z</time>
      </trkpt>
      <trkpt lat="60.66919" lon="16.89571">
        <ele>105.101672</ele>
        <time>2020-10-10T09:16:20.300Z</time>
      </trkpt>
      <trkpt lat="60.67006" lon="16.90004">
        <ele>109.390047</ele>
        <time>2020-10-10T09:17:20.277Z</time>
      </trkpt>
      <trkpt lat="60.67023" lon="16.90477">
        <ele>109.984776</ele>
        <time>2020-10-10T09:18:19.296Z</time>
      </trkpt>
      <trkpt lat="60.67022" lon="16.9091">
        <ele>114.049161</ele>
        <time>2020-10-10T09:19:21.318Z</time>
      </trkpt>
      <trkpt lat="60.67001" lon="16.91323">
        <ele>119.04343</ele>
        <time>2020-10-10T09:20:23.305Z</time>
      </trkpt>
      <trkpt lat="60.6692" lon="16.91739">
        <ele>123.765617</ele>
        <time>2020-10-10T09:21:19.276Z</time>
      </trkpt>
      <trkpt lat="60.66837" lon="16.92172">
        <ele>125.337227</ele>
        <time>2020-10-10T09:22:18.272Z</time>
      </trkpt>
      <trkpt lat="60.66737" lon="16.92639">
        <ele>117.195983</ele>
        <time>2020-10-10T09:23:17.284Z</time>
      </trkpt>
      <trkpt lat="60.66728" lon="16.93099">
        <ele>114.759009</ele>
        <time>2020-10-10T09:24:05.282Z</time>
      </trkpt>
      <trkpt lat="60.66739" lon="16.93593">
        <ele>108.938237</ele>
        <time>2020-10-10T09:24:48.283Z</time>
      </trkpt>
      <trkpt lat="60.66721" lon="16.94023">
        <ele>117.405679</ele>
        <time>2020-10-10T09:25:42.322Z</time>
      </trkpt>
      <trkpt lat="60.66682" lon="16.94448">
        <ele>116.403612</ele>
        <time>2020-10-10T09:26:45.283Z</time>
      </trkpt>
      <trkpt lat="60.66567" lon="16.94918">
        <ele>111.775733</ele>
        <time>2020-10-10T09:27:25.308Z</time>
      </trkpt>
      <trkpt lat="60.66464" lon="16.95523">
        <ele>101.678695</ele>
        <time>2020-10-10T09:28:05.303Z</time>
      </trkpt>
      <trkpt lat="60.66347" lon="16.95987">
        <ele>96.27941</ele>
        <time>2020-10-10T09:28:47.273Z</time>
      </trkpt>
      <trkpt lat="60.66226" lon="16.96479">
        <ele>88.46627</ele>
        <time>2020-10-10T09:29:28.290Z</time>
      </trkpt>
      <trkpt lat="60.66109" lon="16.96938">
        <ele>89.764586</ele>
        <time>2020-10-10T09:30:10.282Z</time>
      </trkpt>
      <trkpt lat="60.65953" lon="16.97341">
        <ele>86.724332</ele>
        <time>2020-10-10T09:30:50.274Z</time>
      </trkpt>
      <trkpt lat="60.65791" lon="16.97643">
        <ele>86.258793</ele>
        <time>2020-10-10T09:31:38.288Z</time>
      </trkpt>
      <trkpt lat="60.65612" lon="16.97896">
        <ele>85.570517</ele>
        <time>2020-10-10T09:32:29.276Z</time>
      </trkpt>
      <trkpt lat="60.65368" lon="16.97945">
        <ele>82.885827</ele>
        <time>2020-10-10T09:33:09.295Z</time>
      </trkpt>
      <trkpt lat="60.65164" lon="16.98116">
        <ele>83.664237</ele>
        <time>2020-10-10T09:33:59.284Z</time>
      </trkpt>
      <trkpt lat="60.6506" lon="16.98492">
        <ele>82.038968</ele>
        <time>2020-10-10T09:34:51.295Z</time>
      </trkpt>
      <trkpt lat="60.64982" lon="16.98939">
        <ele>78.706045</ele>
        <time>2020-10-10T09:35:31.301Z</time>
      </trkpt>
      <trkpt lat="60.64851" lon="16.99334">
        <ele>74.51115</ele>
        <time>2020-10-10T09:36:11.317Z</time>
      </trkpt>
      <trkpt lat="60.64772" lon="16.99641">
        <ele>70.297981</ele>
        <time>2020-10-10T09:37:10.281Z</time>
      </trkpt>
      <trkpt lat="60.64668" lon="17.00069">
        <ele>72.383289</ele>
        <time>2020-10-10T09:38:07.293Z</time>
      </trkpt>
      <trkpt lat="60.6454" lon="17.00472">
        <ele>83.066459</ele>
        <time>2020-10-10T09:39:05.281Z</time>
      </trkpt>
      <trkpt lat="60.64404" lon="17.00804">
        <ele>80.369521</ele>
        <time>2020-10-10T09:39:50.279Z</time>
      </trkpt>
      <trkpt lat="60.64498" lon="17.01126">
        <ele>70.052636</ele>
        <time>2020-10-10T09:40:47.276Z</time>
      </trkpt>
      <trkpt lat="60.6464" lon="17.01422">
        <ele>66.652549</ele>
        <time>2020-10-10T09:41:27.292Z</time>
      </trkpt>
      <trkpt lat="60.64758" lon="17.01801">
        <ele>66.876075</ele>
        <time>2020-10-10T09:42:14.296Z</time>
      </trkpt>
      <trkpt lat="60.64824" lon="17.02192">
        <ele>69.549106</ele>
        <time>2020-10-10T09:42:58.293Z</time>
      </trkpt>
      <trkpt lat="60.64889" lon="17.02588">
        <ele>70.397519</ele>
        <time>2020-10-10T09:43:46.285Z</time>
      </trkpt>
      <trkpt lat="60.65012" lon="17.02805">
        <ele>71.330058</ele>
        <time>2020-10-10T09:44:58.286Z</time>
      </trkpt>
      <trkpt lat="60.65023" lon="17.03249">
        <ele>68.282584</ele>
        <time>2020-10-10T09:45:41.288Z</time>
      </trkpt>
      <trkpt lat="60.65054" lon="17.03718">
        <ele>63.637768</ele>
        <time>2020-10-10T09:46:25.301Z</time>
      </trkpt>
      <trkpt lat="60.65143" lon="17.04116">
        <ele>63.235341</ele>
        <time>2020-10-10T09:47:12.279Z</time>
      </trkpt>
      <trkpt lat="60.65311" lon="17.0441">
        <ele>59.80941</ele>
        <time>2020-10-10T09:47:52.281Z</time>
      </trkpt>
      <trkpt lat="60.65486" lon="17.04634">
        <ele>59.830922</ele>
        <time>2020-10-10T09:48:34.309Z</time>
      </trkpt>
      <trkpt lat="60.65634" lon="17.04954">
        <ele>57.971001</ele>
        <time>2020-10-10T09:49:15.317Z</time>
      </trkpt>
      <trkpt lat="60.6579" lon="17.05256">
        <ele>55.754</ele>
        <time>2020-10-10T09:49:55.296Z</time>
      </trkpt>
      <trkpt lat="60.65955" lon="17.05496">
        <ele>55.418455</ele>
        <time>2020-10-10T09:50:38.300Z</time>
      </trkpt>
      <trkpt lat="60.66115" lon="17.05811">
        <ele>54.304164</ele>
        <time>2020-10-10T09:51:20.316Z</time>
      </trkpt>
      <trkpt lat="60.66259" lon="17.06156">
        <ele>55.836471</ele>
        <time>2020-10-10T09:52:08.282Z</time>
      </trkpt>
      <trkpt lat="60.66332" lon="17.06566">
        <ele>57.441496</ele>
        <time>2020-10-10T09:52:51.297Z</time>
      </trkpt>
      <trkpt lat="60.66485" lon="17.06897">
        <ele>57.412171</ele>
        <time>2020-10-10T09:53:45.291Z</time>
      </trkpt>
      <trkpt lat="60.66607" lon="17.07258">
        <ele>54.47436</ele>
        <time>2020-10-10T09:54:31.277Z</time>
      </trkpt>
      <trkpt lat="60.66719" lon="17.07641">
        <ele>55.268059</ele>
        <time>2020-10-10T09:55:15.285Z</time>
      </trkpt>
      <trkpt lat="60.66808" lon="17.08023">
        <ele>50.661287</ele>
        <time>2020-10-10T09:55:58.314Z</time>
      </trkpt>
      <trkpt lat="60.66912" lon="17.08429">
        <ele>50.098166</ele>
        <time>2020-10-10T09:56:43.290Z</time>
      </trkpt>
      <trkpt lat="60.67101" lon="17.08696">
        <ele>54.807153</ele>
        <time>2020-10-10T09:57:43.324Z</time>
      </trkpt>
      <trkpt lat="60.67144" lon="17.09125">
        <ele>50.853582</ele>
        <time>2020-10-10T09:58:30.341Z</time>
      </trkpt>
      <trkpt lat="60.67198" lon="17.09566">
        <ele>49.076225</ele>
        <time>2020-10-10T09:59:15.277Z</time>
      </trkpt>
      <trkpt lat="60.67272" lon="17.09956">
        <ele>48.30863</ele>
        <time>2020-10-10T09:59:57.290Z</time>
      </trkpt>
      <trkpt lat="60.67355" lon="17.1036">
        <ele>46.557706</ele>
        <time>2020-10-10T10:00:38.297Z</time>
      </trkpt>
      <trkpt lat="60.67451" lon="17.10724">
        <ele>48.155212</ele>
        <time>2020-10-10T10:01:32.329Z</time>
      </trkpt>
      <trkpt lat="60.67523" lon="17.11143">
        <ele>45.041498</ele>
        <time>2020-10-10T10:02:20.276Z</time>
      </trkpt>
      <trkpt lat="60.67554" lon="17.11601">
        <ele>46.72739</ele>
        <time>2020-10-10T10:03:12.331Z</time>
      </trkpt>
      <trkpt lat="60.67571" lon="17.12063">
        <ele>40.604965</ele>
        <time>2020-10-10T10:04:02.296Z</time>
      </trkpt>
      <trkpt lat="60.67569" lon="17.12492">
        <ele>40.056098</ele>
        <time>2020-10-10T10:04:42.292Z</time>
      </trkpt>
      <trkpt lat="60.67544" lon="17.12922">
        <ele>40.704933</ele>
        <time>2020-10-10T10:05:28.313Z</time>
      </trkpt>
      <trkpt lat="60.67405" lon="17.13238">
        <ele>38.327354</ele>
        <time>2020-10-10T10:06:17.299Z</time>
      </trkpt>
      <trkpt lat="60.67329" lon="17.13574">
        <ele>38.814651</ele>
        <time>2020-10-10T10:07:19.289Z</time>
      </trkpt>
      <trkpt lat="60.6746" lon="17.13954">
        <ele>61.191167</ele>
        <time>2020-10-10T10:08:26.304Z</time>
      </trkpt>
      <trkpt lat="60.67545" lon="17.14341">
        <ele>58.415357</ele>
        <time>2020-10-10T10:09:43.284Z</time>
      </trkpt>
      <trkpt lat="60.67344" lon="17.14511">
        <ele>41.251923</ele>
        <time>2020-10-10T10:13:44.296Z</time>
      </trkpt>
      <trkpt lat="60.67158" lon="17.14735">
        <ele>61.828561</ele>
        <time>2020-10-10T10:15:04.298Z</time>
      </trkpt>
      <trkpt lat="60.67001" lon="17.14899">
        <ele>75.832118</ele>
        <time>2020-10-10T11:04:23.331Z</time>
      </trkpt>
      <trkpt lat="60.66808" lon="17.15134">
        <ele>74.147726</ele>
        <time>2020-10-10T11:05:20.329Z</time>
      </trkpt>
      <trkpt lat="60.66597" lon="17.15275">
        <ele>53.147374</ele>
        <time>2020-10-10T11:06:52.289Z</time>
      </trkpt>
      <trkpt lat="60.6639" lon="17.15473">
        <ele>46.663268</ele>
        <time>2020-10-10T11:07:46.314Z</time>
      </trkpt>
      <trkpt lat="60.66203" lon="17.157">
        <ele>46.717514</ele>
        <time>2020-10-10T11:08:36.296Z</time>
      </trkpt>
      <trkpt lat="60.66064" lon="17.16041">
        <ele>41.594103</ele>
        <time>2020-10-10T11:09:47.292Z</time>
      </trkpt>
      <trkpt lat="60.65903" lon="17.1635">
        <ele>41.054504</ele>
        <time>2020-10-10T11:10:39.332Z</time>
      </trkpt>
      <trkpt lat="60.6572" lon="17.16552">
        <ele>37.056395</ele>
        <time>2020-10-10T11:11:30.330Z</time>
      </trkpt>
      <trkpt lat="60.6554" lon="17.16831">
        <ele>42.190056</ele>
        <time>2020-10-10T11:12:29.314Z</time>
      </trkpt>
      <trkpt lat="60.65386" lon="17.17146">
        <ele>45.012862</ele>
        <time>2020-10-10T11:13:30.293Z</time>
      </trkpt>
      <trkpt lat="60.65257" lon="17.17525">
        <ele>45.860224</ele>
        <time>2020-10-10T11:14:34.331Z</time>
      </trkpt>
      <trkpt lat="60.65162" lon="17.17928">
        <ele>51.389874</ele>
        <time>2020-10-10T11:15:48.325Z</time>
      </trkpt>
      <trkpt lat="60.65055" lon="17.18331">
        <ele>47.546228</ele>
        <time>2020-10-10T11:16:48.297Z</time>
      </trkpt>
      <trkpt lat="60.64962" lon="17.18835">
        <ele>43.587971</ele>
        <time>2020-10-10T11:17:37.305Z</time>
      </trkpt>
      <trkpt lat="60.6492" lon="17.19291">
        <ele>51.256588</ele>
        <time>2020-10-10T11:18:38.294Z</time>
      </trkpt>
      <trkpt lat="60.64953" lon="17.19715">
        <ele>56.40506</ele>
        <time>2020-10-10T11:19:46.323Z</time>
      </trkpt>
      <trkpt lat="60.64975" lon="17.20121">
        <ele>58.123863</ele>
        <time>2020-10-10T11:20:47.295Z</time>
      </trkpt>
      <trkpt lat="60.64996" lon="17.20586">
        <ele>61.600733</ele>
        <time>2020-10-10T11:21:51.311Z</time>
      </trkpt>
      <trkpt lat="60.65018" lon="17.21013">
        <ele>70.816787</ele>
        <time>2020-10-10T11:22:55.292Z</time>
      </trkpt>
      <trkpt lat="60.65049" lon="17.21478">
        <ele>70.598135</ele>
        <time>2020-10-10T11:23:52.310Z</time>
      </trkpt>
      <trkpt lat="60.65099" lon="17.2188">
        <ele>68.853069</ele>
        <time>2020-10-10T11:24:34.295Z</time>
      </trkpt>
      <trkpt lat="60.65138" lon="17.22289">
        <ele>71.248229</ele>
        <time>2020-10-10T11:25:18.316Z</time>
      </trkpt>
      <trkpt lat="60.65119" lon="17.22682">
        <ele>64.057446</ele>
        <time>2020-10-10T11:25:58.307Z</time>
      </trkpt>
      <trkpt lat="60.6502" lon="17.23041">
        <ele>64.355581</ele>
        <time>2020-10-10T11:26:43.306Z</time>
      </trkpt>
      <trkpt lat="60.64975" lon="17.23472">
        <ele>59.016446</ele>
        <time>2020-10-10T11:27:30.306Z</time>
      </trkpt>
      <trkpt lat="60.64926" lon="17.23926">
        <ele>58.816297</ele>
        <time>2020-10-10T11:28:37.336Z</time>
      </trkpt>
      <trkpt lat="60.64883" lon="17.24378">
        <ele>55.887578</ele>
        <time>2020-10-10T11:29:30.316Z</time>
      </trkpt>
      <trkpt lat="60.64834" lon="17.24805">
        <ele>55.346585</ele>
        <time>2020-10-10T11:30:10.309Z</time>
      </trkpt>
      <trkpt lat="60.6475" lon="17.2522">
        <ele>56.723984</ele>
        <time>2020-10-10T11:30:59.296Z</time>
      </trkpt>
      <trkpt lat="60.64655" lon="17.25672">
        <ele>56.058461</ele>
        <time>2020-10-10T11:31:56.314Z</time>
      </trkpt>
      <trkpt lat="60.64584" lon="17.26067">
        <ele>55.904787</ele>
        <time>2020-10-10T11:32:42.328Z</time>
      </trkpt>
      <trkpt lat="60.64543" lon="17.26527">
        <ele>55.770345</ele>
        <time>2020-10-10T11:33:34.301Z</time>
      </trkpt>
      <trkpt lat="60.64548" lon="17.27021">
        <ele>56.026356</ele>
        <time>2020-10-10T11:34:30.315Z</time>
      </trkpt>
      <trkpt lat="60.64592" lon="17.27481">
        <ele>57.96564</ele>
        <time>2020-10-10T11:35:12.304Z</time>
      </trkpt>
      <trkpt lat="60.64641" lon="17.27916">
        <ele>56.779989</ele>
        <time>2020-10-10T11:35:58.336Z</time>
      </trkpt>
      <trkpt lat="60.64682" lon="17.28346">
        <ele>56.197773</ele>
        <time>2020-10-10T11:36:38.301Z</time>
      </trkpt>
      <trkpt lat="60.64731" lon="17.28777">
        <ele>54.77324</ele>
        <time>2020-10-10T11:37:21.307Z</time>
      </trkpt>
      <trkpt lat="60.64782" lon="17.29253">
        <ele>49.940537</ele>
        <time>2020-10-10T11:38:03.339Z</time>
      </trkpt>
      <trkpt lat="60.6484" lon="17.29766">
        <ele>46.366295</ele>
        <time>2020-10-10T11:38:45.297Z</time>
      </trkpt>
      <trkpt lat="60.64888" lon="17.30186">
        <ele>47.19419</ele>
        <time>2020-10-10T11:39:25.309Z</time>
      </trkpt>
      <trkpt lat="60.64941" lon="17.30629">
        <ele>49.655887</ele>
        <time>2020-10-10T11:40:23.302Z</time>
      </trkpt>
      <trkpt lat="60.64988" lon="17.31073">
        <ele>49.947278</ele>
        <time>2020-10-10T11:41:10.313Z</time>
      </trkpt>
      <trkpt lat="60.6499" lon="17.31562">
        <ele>46.494702</ele>
        <time>2020-10-10T11:41:52.317Z</time>
      </trkpt>
      <trkpt lat="60.65065" lon="17.3195">
        <ele>51.694505</ele>
        <time>2020-10-10T11:43:00.329Z</time>
      </trkpt>
      <trkpt lat="60.65108" lon="17.32477">
        <ele>45.492796</ele>
        <time>2020-10-10T11:43:42.321Z</time>
      </trkpt>
      <trkpt lat="60.64999" lon="17.32855">
        <ele>43.935274</ele>
        <time>2020-10-10T11:44:37.308Z</time>
      </trkpt>
      <trkpt lat="60.6504" lon="17.3324">
        <ele>39.475258</ele>
        <time>2020-10-10T11:45:32.353Z</time>
      </trkpt>
      <trkpt lat="60.64966" lon="17.33645">
        <ele>39.044123</ele>
        <time>2020-10-10T11:46:33.299Z</time>
      </trkpt>
      <trkpt lat="60.65038" lon="17.33607">
        <ele>37.616531</ele>
        <time>2020-10-10T11:47:36.338Z</time>
      </trkpt>
      <trkpt lat="60.64977" lon="17.34023">
        <ele>33.077642</ele>
        <time>2020-10-10T11:48:23.312Z</time>
      </trkpt>
      <trkpt lat="60.65" lon="17.34525">
        <ele>34.887962</ele>
        <time>2020-10-10T11:49:07.299Z</time>
      </trkpt>
      <trkpt lat="60.65015" lon="17.34905">
        <ele>45.736737</ele>
        <time>2020-10-10T11:50:05.361Z</time>
      </trkpt>
      <trkpt lat="60.64962" lon="17.35371">
        <ele>44.395254</ele>
        <time>2020-10-10T11:50:54.317Z</time>
      </trkpt>
      <trkpt lat="60.64931" lon="17.35777">
        <ele>52.731177</ele>
        <time>2020-10-10T11:51:54.333Z</time>
      </trkpt>
      <trkpt lat="60.64901" lon="17.36209">
        <ele>55.969525</ele>
        <time>2020-10-10T11:52:55.308Z</time>
      </trkpt>
      <trkpt lat="60.64879" lon="17.36649">
        <ele>50.302186</ele>
        <time>2020-10-10T11:53:41.316Z</time>
      </trkpt>
      <trkpt lat="60.64907" lon="17.37063">
        <ele>41.404684</ele>
        <time>2020-10-10T11:54:36.336Z</time>
      </trkpt>
      <trkpt lat="60.6489" lon="17.37376">
        <ele>40.563829</ele>
        <time>2020-10-10T11:55:24.334Z</time>
      </trkpt>
      <trkpt lat="60.6467" lon="17.37625">
        <ele>23.33615</ele>
        <time>2020-10-10T11:56:04.351Z</time>
      </trkpt>
      <trkpt lat="60.64472" lon="17.37816">
        <ele>25.774851</ele>
        <time>2020-10-10T11:56:55.325Z</time>
      </trkpt>
      <trkpt lat="60.64457" lon="17.38076">
        <ele>36.645516</ele>
        <time>2020-10-10T11:58:03.320Z</time>
      </trkpt>
      <trkpt lat="60.64374" lon="17.38276">
        <ele>40.203521</ele>
        <time>2020-10-10T11:59:07.338Z</time>
      </trkpt>
      <trkpt lat="60.64318" lon="17.38725">
        <ele>38.379804</ele>
        <time>2020-10-10T12:00:02.358Z</time>
      </trkpt>
      <trkpt lat="60.64233" lon="17.39133">
        <ele>34.352796</ele>
        <time>2020-10-10T12:00:42.332Z</time>
      </trkpt>
      <trkpt lat="60.64119" lon="17.39486">
        <ele>35.499758</ele>
        <time>2020-10-10T12:01:29.329Z</time>
      </trkpt>
      <trkpt lat="60.63991" lon="17.39817">
        <ele>31.84701</ele>
        <time>2020-10-10T12:02:31.322Z</time>
      </trkpt>
      <trkpt lat="60.6386" lon="17.40162">
        <ele>31.209907</ele>
        <time>2020-10-10T12:03:31.320Z</time>
      </trkpt>
      <trkpt lat="60.63636" lon="17.40449">
        <ele>23.170192</ele>
        <time>2020-10-10T12:04:11.304Z</time>
      </trkpt>
      <trkpt lat="60.63441" lon="17.40666">
        <ele>25.027724</ele>
        <time>2020-10-10T12:05:08.337Z</time>
      </trkpt>
      <trkpt lat="60.63255" lon="17.40885">
        <ele>22.539221</ele>
        <time>2020-10-10T12:06:07.353Z</time>
      </trkpt>
      <trkpt lat="60.63063" lon="17.41118">
        <ele>22.522181</ele>
        <time>2020-10-10T12:07:05.333Z</time>
      </trkpt>
      <trkpt lat="60.62884" lon="17.41329">
        <ele>23.375795</ele>
        <time>2020-10-10T12:08:07.333Z</time>
      </trkpt>
      <trkpt lat="60.62657" lon="17.4151">
        <ele>26.591219</ele>
        <time>2020-10-10T12:09:07.312Z</time>
      </trkpt>
      <trkpt lat="60.62473" lon="17.41602">
        <ele>33.248734</ele>
        <time>2020-10-10T12:10:10.336Z</time>
      </trkpt>
      <trkpt lat="60.62407" lon="17.41818">
        <ele>34.006552</ele>
        <time>2020-10-10T12:26:02.621Z</time>
      </trkpt>
      <trkpt lat="60.62217" lon="17.42074">
        <ele>33.692291</ele>
        <time>2020-10-10T12:27:02.631Z</time>
      </trkpt>
      <trkpt lat="60.62007" lon="17.42292">
        <ele>34.817557</ele>
        <time>2020-10-10T12:28:02.630Z</time>
      </trkpt>
      <trkpt lat="60.61803" lon="17.42503">
        <ele>35.231256</ele>
        <time>2020-10-10T12:29:02.670Z</time>
      </trkpt>
      <trkpt lat="60.61622" lon="17.42696">
        <ele>40.077533</ele>
        <time>2020-10-10T12:30:02.626Z</time>
      </trkpt>
      <trkpt lat="60.61444" lon="17.42857">
        <ele>41.045767</ele>
        <time>2020-10-10T12:31:03.644Z</time>
      </trkpt>
      <trkpt lat="60.61224" lon="17.4298">
        <ele>42.232066</ele>
        <time>2020-10-10T12:32:03.640Z</time>
      </trkpt>
      <trkpt lat="60.60999" lon="17.43131">
        <ele>42.581782</ele>
        <time>2020-10-10T12:33:06.618Z</time>
      </trkpt>
      <trkpt lat="60.60798" lon="17.43246">
        <ele>43.596681</ele>
        <time>2020-10-10T12:33:56.630Z</time>
      </trkpt>
      <trkpt lat="60.60597" lon="17.43368">
        <ele>42.187103</ele>
        <time>2020-10-10T12:34:43.618Z</time>
      </trkpt>
      <trkpt lat="60.60388" lon="17.435">
        <ele>42.361579</ele>
        <time>2020-10-10T12:35:30.638Z</time>
      </trkpt>
      <trkpt lat="60.60174" lon="17.43626">
        <ele>40.969467</ele>
        <time>2020-10-10T12:36:17.653Z</time>
      </trkpt>
      <trkpt lat="60.59967" lon="17.4375">
        <ele>44.984572</ele>
        <time>2020-10-10T12:37:19.636Z</time>
      </trkpt>
      <trkpt lat="60.59756" lon="17.43736">
        <ele>46.244037</ele>
        <time>2020-10-10T12:38:01.620Z</time>
      </trkpt>
      <trkpt lat="60.59525" lon="17.43643">
        <ele>47.356458</ele>
        <time>2020-10-10T12:38:53.626Z</time>
      </trkpt>
      <trkpt lat="60.59304" lon="17.43605">
        <ele>44.429291</ele>
        <time>2020-10-10T12:39:39.621Z</time>
      </trkpt>
      <trkpt lat="60.59106" lon="17.43689">
        <ele>37.474678</ele>
        <time>2020-10-10T12:40:24.624Z</time>
      </trkpt>
      <trkpt lat="60.5891" lon="17.43851">
        <ele>37.581302</ele>
        <time>2020-10-10T12:41:04.635Z</time>
      </trkpt>
      <trkpt lat="60.58696" lon="17.43905">
        <ele>37.364105</ele>
        <time>2020-10-10T12:41:53.683Z</time>
      </trkpt>
      <trkpt lat="60.58501" lon="17.44157">
        <ele>35.919042</ele>
        <time>2020-10-10T12:42:47.617Z</time>
      </trkpt>
      <trkpt lat="60.58297" lon="17.44395">
        <ele>35.713564</ele>
        <time>2020-10-10T12:43:43.661Z</time>
      </trkpt>
      <trkpt lat="60.58058" lon="17.44495">
        <ele>39.859661</ele>
        <time>2020-10-10T12:44:46.634Z</time>
      </trkpt>
      <trkpt lat="60.57856" lon="17.44378">
        <ele>42.800319</ele>
        <time>2020-10-10T12:45:48.631Z</time>
      </trkpt>
      <trkpt lat="60.57658" lon="17.44318">
        <ele>45.488076</ele>
        <time>2020-10-10T12:46:50.649Z</time>
      </trkpt>
      <trkpt lat="60.57475" lon="17.44098">
        <ele>47.13853</ele>
        <time>2020-10-10T12:47:50.649Z</time>
      </trkpt>
      <trkpt lat="60.5727" lon="17.43911">
        <ele>50.782255</ele>
        <time>2020-10-10T12:48:50.623Z</time>
      </trkpt>
      <trkpt lat="60.57062" lon="17.43829">
        <ele>50.353836</ele>
        <time>2020-10-10T12:49:37.639Z</time>
      </trkpt>
      <trkpt lat="60.5686" lon="17.43648">
        <ele>50.117291</ele>
        <time>2020-10-10T12:50:32.637Z</time>
      </trkpt>
      <trkpt lat="60.56631" lon="17.43658">
        <ele>55.387559</ele>
        <time>2020-10-10T12:51:22.623Z</time>
      </trkpt>
      <trkpt lat="60.56451" lon="17.43938">
        <ele>52.475767</ele>
        <time>2020-10-10T12:52:00.662Z</time>
      </trkpt>
      <trkpt lat="60.56259" lon="17.44102">
        <ele>49.856203</ele>
        <time>2020-10-10T12:53:04.630Z</time>
      </trkpt>
      <trkpt lat="60.56131" lon="17.44278">
        <ele>48.164854</ele>
        <time>2020-10-10T12:54:33.630Z</time>
      </trkpt>
      <trkpt lat="60.56103" lon="17.44507">
        <ele>49.993452</ele>
        <time>2020-10-10T12:55:45.672Z</time>
      </trkpt>
      <trkpt lat="60.55922" lon="17.44434">
        <ele>48.559878</ele>
        <time>2020-10-10T12:56:51.617Z</time>
      </trkpt>
      <trkpt lat="60.55724" lon="17.44579">
        <ele>49.166001</ele>
        <time>2020-10-10T12:58:00.626Z</time>
      </trkpt>
      <trkpt lat="60.55495" lon="17.44611">
        <ele>52.406145</ele>
        <time>2020-10-10T13:00:24.647Z</time>
      </trkpt>
      <trkpt lat="60.55284" lon="17.44553">
        <ele>53.823186</ele>
        <time>2020-10-10T13:01:26.640Z</time>
      </trkpt>
      <trkpt lat="60.55077" lon="17.44356">
        <ele>54.403678</ele>
        <time>2020-10-10T13:02:26.627Z</time>
      </trkpt>
      <trkpt lat="60.54864" lon="17.44263">
        <ele>58.462045</ele>
        <time>2020-10-10T13:03:38.618Z</time>
      </trkpt>
      <trkpt lat="60.54636" lon="17.44182">
        <ele>60.394144</ele>
        <time>2020-10-10T13:04:39.626Z</time>
      </trkpt>
      <trkpt lat="60.54403" lon="17.4414">
        <ele>62.923559</ele>
        <time>2020-10-10T13:05:39.630Z</time>
      </trkpt>
      <trkpt lat="60.54194" lon="17.44114">
        <ele>63.619597</ele>
        <time>2020-10-10T13:06:47.643Z</time>
      </trkpt>
      <trkpt lat="60.53994" lon="17.43902">
        <ele>64.667003</ele>
        <time>2020-10-10T13:08:09.625Z</time>
      </trkpt>
      <trkpt lat="60.53777" lon="17.43782">
        <ele>61.769078</ele>
        <time>2020-10-10T13:08:56.648Z</time>
      </trkpt>
      <trkpt lat="60.53512" lon="17.43784">
        <ele>56.77128</ele>
        <time>2020-10-10T13:09:36.629Z</time>
      </trkpt>
      <trkpt lat="60.53283" lon="17.43752">
        <ele>59.16534</ele>
        <time>2020-10-10T13:10:20.651Z</time>
      </trkpt>
      <trkpt lat="60.53064" lon="17.4372">
        <ele>66.824998</ele>
        <time>2020-10-10T13:11:12.642Z</time>
      </trkpt>
      <trkpt lat="60.5284" lon="17.43638">
        <ele>64.560046</ele>
        <time>2020-10-10T13:12:09.655Z</time>
      </trkpt>
      <trkpt lat="60.52645" lon="17.4354">
        <ele>66.267348</ele>
        <time>2020-10-10T13:13:10.631Z</time>
      </trkpt>
      <trkpt lat="60.52474" lon="17.43313">
        <ele>71.587053</ele>
        <time>2020-10-10T13:14:14.628Z</time>
      </trkpt>
      <trkpt lat="60.52303" lon="17.43037">
        <ele>63.995447</ele>
        <time>2020-10-10T13:15:05.630Z</time>
      </trkpt>
      <trkpt lat="60.52103" lon="17.42834">
        <ele>62.260478</ele>
        <time>2020-10-10T13:15:45.639Z</time>
      </trkpt>
      <trkpt lat="60.51895" lon="17.42802">
        <ele>61.926444</ele>
        <time>2020-10-10T13:16:25.631Z</time>
      </trkpt>
      <trkpt lat="60.51686" lon="17.42861">
        <ele>59.141467</ele>
        <time>2020-10-10T13:17:05.667Z</time>
      </trkpt>
      <trkpt lat="60.51482" lon="17.42918">
        <ele>57.549367</ele>
        <time>2020-10-10T13:17:47.643Z</time>
      </trkpt>
      <trkpt lat="60.51266" lon="17.42982">
        <ele>59.313828</ele>
        <time>2020-10-10T13:18:38.655Z</time>
      </trkpt>
      <trkpt lat="60.51055" lon="17.43045">
        <ele>62.770568</ele>
        <time>2020-10-10T13:19:43.629Z</time>
      </trkpt>
      <trkpt lat="60.5084" lon="17.43077">
        <ele>68.475626</ele>
        <time>2020-10-10T13:20:44.641Z</time>
      </trkpt>
      <trkpt lat="60.50633" lon="17.43067">
        <ele>68.22006</ele>
        <time>2020-10-10T13:21:26.669Z</time>
      </trkpt>
      <trkpt lat="60.50414" lon="17.42996">
        <ele>65.989966</ele>
        <time>2020-10-10T13:22:15.659Z</time>
      </trkpt>
      <trkpt lat="60.50174" lon="17.42852">
        <ele>67.20681</ele>
        <time>2020-10-10T13:23:14.639Z</time>
      </trkpt>
      <trkpt lat="60.49968" lon="17.42713">
        <ele>67.63768</ele>
        <time>2020-10-10T13:24:03.632Z</time>
      </trkpt>
      <trkpt lat="60.49733" lon="17.42555">
        <ele>67.808415</ele>
        <time>2020-10-10T13:25:01.635Z</time>
      </trkpt>
      <trkpt lat="60.49544" lon="17.4263">
        <ele>67.217237</ele>
        <time>2020-10-10T13:33:12.656Z</time>
      </trkpt>
      <trkpt lat="60.49319" lon="17.4259">
        <ele>63.675468</ele>
        <time>2020-10-10T13:33:56.668Z</time>
      </trkpt>
      <trkpt lat="60.49141" lon="17.42722">
        <ele>65.839134</ele>
        <time>2020-10-10T13:35:00.677Z</time>
      </trkpt>
      <trkpt lat="60.49047" lon="17.42867">
        <ele>73.027518</ele>
        <time>2020-10-10T13:36:17.645Z</time>
      </trkpt>
      <trkpt lat="60.48979" lon="17.43247">
        <ele>72.524914</ele>
        <time>2020-10-10T13:37:17.663Z</time>
      </trkpt>
      <trkpt lat="60.48928" lon="17.43714">
        <ele>71.734607</ele>
        <time>2020-10-10T13:37:57.644Z</time>
      </trkpt>
      <trkpt lat="60.48922" lon="17.44148">
        <ele>71.318818</ele>
        <time>2020-10-10T13:38:37.631Z</time>
      </trkpt>
      <trkpt lat="60.48841" lon="17.44572">
        <ele>69.736087</ele>
        <time>2020-10-10T13:39:19.671Z</time>
      </trkpt>
      <trkpt lat="60.48699" lon="17.44939">
        <ele>67.637956</ele>
        <time>2020-10-10T13:40:08.629Z</time>
      </trkpt>
      <trkpt lat="60.48464" lon="17.44821">
        <ele>71.313045</ele>
        <time>2020-10-10T13:41:08.626Z</time>
      </trkpt>
      <trkpt lat="60.48227" lon="17.44824">
        <ele>65.127136</ele>
        <time>2020-10-10T13:42:08.652Z</time>
      </trkpt>
      <trkpt lat="60.4802" lon="17.44832">
        <ele>68.749804</ele>
        <time>2020-10-10T13:43:08.656Z</time>
      </trkpt>
      <trkpt lat="60.47796" lon="17.44836">
        <ele>68.414931</ele>
        <time>2020-10-10T13:44:08.634Z</time>
      </trkpt>
      <trkpt lat="60.47592" lon="17.44839">
        <ele>74.013229</ele>
        <time>2020-10-10T13:45:21.629Z</time>
      </trkpt>
      <trkpt lat="60.47377" lon="17.44899">
        <ele>80.386382</ele>
        <time>2020-10-10T13:48:49.628Z</time>
      </trkpt>
      <trkpt lat="60.4726" lon="17.45185">
        <ele>87.617045</ele>
        <time>2020-10-10T13:49:58.673Z</time>
      </trkpt>
      <trkpt lat="60.4722" lon="17.45591">
        <ele>85.940685</ele>
        <time>2020-10-10T13:50:38.651Z</time>
      </trkpt>
      <trkpt lat="60.4718" lon="17.46011">
        <ele>83.605292</ele>
        <time>2020-10-10T13:51:24.639Z</time>
      </trkpt>
      <trkpt lat="60.47083" lon="17.46452">
        <ele>77.047582</ele>
        <time>2020-10-10T13:52:05.635Z</time>
      </trkpt>
      <trkpt lat="60.46995" lon="17.46866">
        <ele>78.549475</ele>
        <time>2020-10-10T13:52:53.654Z</time>
      </trkpt>
      <trkpt lat="60.46937" lon="17.47301">
        <ele>76.345445</ele>
        <time>2020-10-10T13:53:44.655Z</time>
      </trkpt>
      <trkpt lat="60.46882" lon="17.47806">
        <ele>71.687432</ele>
        <time>2020-10-10T13:54:27.674Z</time>
      </trkpt>
      <trkpt lat="60.46849" lon="17.48252">
        <ele>79.406208</ele>
        <time>2020-10-10T13:55:10.676Z</time>
      </trkpt>
      <trkpt lat="60.46789" lon="17.48688">
        <ele>79.78369</ele>
        <time>2020-10-10T13:55:58.644Z</time>
      </trkpt>
      <trkpt lat="60.46596" lon="17.48914">
        <ele>74.416421</ele>
        <time>2020-10-10T13:56:55.641Z</time>
      </trkpt>
      <trkpt lat="60.46436" lon="17.49203">
        <ele>67.977328</ele>
        <time>2020-10-10T13:57:48.689Z</time>
      </trkpt>
      <trkpt lat="60.46255" lon="17.49424">
        <ele>64.957202</ele>
        <time>2020-10-10T13:58:37.658Z</time>
      </trkpt>
      <trkpt lat="60.46126" lon="17.49751">
        <ele>72.046106</ele>
        <time>2020-10-10T13:59:30.650Z</time>
      </trkpt>
      <trkpt lat="60.46087" lon="17.50207">
        <ele>77.350057</ele>
        <time>2020-10-10T14:00:23.630Z</time>
      </trkpt>
      <trkpt lat="60.4615" lon="17.50631">
        <ele>73.067248</ele>
        <time>2020-10-10T14:01:13.688Z</time>
      </trkpt>
      <trkpt lat="60.46104" lon="17.50967">
        <ele>68.568797</ele>
        <time>2020-10-10T14:02:21.669Z</time>
      </trkpt>
      <trkpt lat="60.45918" lon="17.5081">
        <ele>67.591975</ele>
        <time>2020-10-10T14:03:28.649Z</time>
      </trkpt>
      <trkpt lat="60.45703" lon="17.50802">
        <ele>63.363013</ele>
        <time>2020-10-10T14:04:30.649Z</time>
      </trkpt>
      <trkpt lat="60.45539" lon="17.50843">
        <ele>65.085129</ele>
        <time>2020-10-10T14:08:10.640Z</time>
      </trkpt>
      <trkpt lat="60.45461" lon="17.51179">
        <ele>67.559842</ele>
        <time>2020-10-10T14:11:14.625Z</time>
      </trkpt>
      <trkpt lat="60.45371" lon="17.51247">
        <ele>65.335567</ele>
        <time>2020-10-10T14:15:37.638Z</time>
      </trkpt>
      <trkpt lat="60.45473" lon="17.51009">
        <ele>67.949525</ele>
        <time>2020-10-10T14:18:13.625Z</time>
      </trkpt>
      <trkpt lat="60.45493" lon="17.50974">
        <ele>68.61386</ele>
        <time>2020-10-10T14:29:43.653Z</time>
      </trkpt>
      <trkpt lat="60.45391" lon="17.51269">
        <ele>64.05981</ele>
        <time>2020-10-10T14:35:41.643Z</time>
      </trkpt>
    </trkseg>
  </trk>
</gpx>